Time;durP1;ratioP1;P1;durP2;ratioP2;P2;SDS_P1;SDS_P2;PMS_P1;PMS_P2;Temp;Humidity;BMP_temperature;BMP_pressure;BME280_temperature;BME280_humidity;BME280_pressure;Samples;Min_cycle;Max_cycle;Signal;HPM_P1;HPM_P2
2021/08/10 00:00:38;;;;;;;8.05;6.10;;;;;;;16.19;74.84;97577.79;1764048;80;26445;-88
2021/08/10 00:03:06;;;;;;;10.80;6.28;;;;;;;16.14;74.96;97582.63;1770756;80;25859;-85
2021/08/10 00:05:33;;;;;;;14.47;6.97;;;;;;;16.12;75.21;97584.75;1780326;80;26144;-85
2021/08/10 00:07:59;;;;;;;12.10;6.50;;;;;;;16.13;75.37;97582.86;1783513;80;25689;-85
2021/08/10 00:10:26;;;;;;;12.13;6.78;;;;;;;16.17;75.43;97586.23;1785664;80;28168;-91
2021/08/10 00:12:54;;;;;;;10.93;6.65;;;;;;;16.20;75.42;97580.27;1785477;80;25986;-91
2021/08/10 00:15:20;;;;;;;10.20;6.50;;;;;;;16.23;75.45;97578.14;1754495;80;26323;-91
2021/08/10 00:17:47;;;;;;;13.03;7.10;;;;;;;16.18;75.48;97571.52;1754470;80;26232;-88
2021/08/10 00:20:14;;;;;;;10.18;6.47;;;;;;;16.12;75.48;97565.69;1753323;80;25829;-85
2021/08/10 00:22:41;;;;;;;9.98;6.85;;;;;;;16.06;75.58;97557.12;1754655;80;27417;-86
2021/08/10 00:25:09;;;;;;;9.10;7.17;;;;;;;16.07;75.78;97552.50;1754599;80;25716;-90
2021/08/10 00:27:36;;;;;;;9.98;6.65;;;;;;;16.08;75.90;97554.16;1754699;80;25718;-93
2021/08/10 00:30:04;;;;;;;10.95;6.47;;;;;;;16.05;75.93;97558.75;1754765;80;26391;-93
2021/08/10 00:32:30;;;;;;;7.53;6.05;;;;;;;16.00;75.98;97564.91;1782095;80;26842;-86
2021/08/10 00:34:57;;;;;;;13.03;6.47;;;;;;;15.96;76.09;97558.28;1785926;80;28371;-85
2021/08/10 00:37:24;;;;;;;10.58;6.05;;;;;;;16.00;76.21;97552.66;1785765;80;25813;-92
2021/08/10 00:39:50;;;;;;;11.18;6.08;;;;;;;16.02;76.26;97553.25;1785830;80;25643;-89
2021/08/10 00:42:17;;;;;;;8.95;6.30;;;;;;;15.99;76.15;97556.98;1780180;80;26116;-87
2021/08/10 00:44:44;;;;;;;7.60;6.17;;;;;;;16.01;76.24;97553.48;1765120;80;25327;-88
2021/08/10 00:47:10;;;;;;;8.90;6.12;;;;;;;16.01;76.25;97561.66;1783014;80;27281;-88
2021/08/10 00:49:37;;;;;;;7.15;5.22;;;;;;;16.00;76.32;97563.55;1785606;80;25888;-91
2021/08/10 00:52:04;;;;;;;8.88;5.65;;;;;;;15.98;76.36;97560.23;1783734;80;26315;-91
2021/08/10 00:54:31;;;;;;;10.08;5.92;;;;;;;15.90;76.40;97559.27;1761190;80;26194;-90
2021/08/10 00:56:57;;;;;;;9.45;6.15;;;;;;;15.86;76.56;97556.72;1785474;80;25791;-89
2021/08/10 00:59:25;;;;;;;10.63;5.53;;;;;;;15.91;76.77;97558.20;1785442;80;27399;-88
2021/08/10 01:01:52;;;;;;;8.95;5.37;;;;;;;15.95;76.85;97563.43;1758992;80;25725;-91
2021/08/10 01:04:18;;;;;;;10.28;5.35;;;;;;;15.96;76.87;97558.28;1758223;81;25704;-89
2021/08/10 01:07:20;;;;;;;8.40;5.03;;;;;;;15.97;76.85;97558.58;1746544;80;26510;-88
2021/08/10 01:10:03;;;;;;;8.70;5.05;;;;;;;16.01;76.86;97554.84;1764848;81;25830;-87
2021/08/10 01:12:52;;;;;;;8.28;4.87;;;;;;;16.02;76.88;97549.70;1737427;81;27318;-90
2021/08/10 01:15:23;;;;;;;8.83;5.30;;;;;;;16.03;76.90;97550.82;1756505;81;25721;-87
2021/08/10 01:18:13;;;;;;;6.35;4.75;;;;;;;16.06;77.01;97557.12;1760221;79;26725;-90
2021/08/10 01:21:09;;;;;;;5.78;4.62;;;;;;;16.08;76.96;97558.23;1749344;81;25790;-87
2021/08/10 01:23:37;;;;;;;8.83;4.78;;;;;;;16.10;76.92;97554.21;1737590;81;25796;-91
2021/08/10 01:26:51;;;;;;;5.65;4.67;;;;;;;16.11;76.93;97554.50;1743863;81;27370;-89
2021/08/10 01:29:34;;;;;;;7.00;4.87;;;;;;;16.15;76.92;97552.13;1758980;81;25770;-84
2021/08/10 01:32:02;;;;;;;6.50;4.50;;;;;;;16.09;76.88;97552.55;1763726;79;25757;-86
2021/08/10 01:34:39;;;;;;;5.17;4.50;;;;;;;16.08;76.96;97552.26;1759276;81;25862;-87
2021/08/10 01:37:13;;;;;;;9.60;5.50;;;;;;;16.09;76.99;97551.20;1737558;81;25282;-86
2021/08/10 01:39:42;;;;;;;9.63;5.12;;;;;;;16.10;77.01;97554.21;1758193;81;26452;-87
2021/08/10 01:42:11;;;;;;;7.70;4.53;;;;;;;16.12;77.00;97545.27;1723201;82;25790;-86
2021/08/10 01:44:40;;;;;;;8.03;4.87;;;;;;;16.11;76.94;97539.53;1737505;81;25701;-91
2021/08/10 01:47:08;;;;;;;7.17;5.00;;;;;;;16.13;76.91;97542.84;1755554;81;26569;-90
2021/08/10 01:49:37;;;;;;;8.93;4.83;;;;;;;16.15;76.88;97547.52;1749243;81;25694;-89
2021/08/10 01:52:07;;;;;;;9.33;5.67;;;;;;;16.16;76.89;97545.62;1751954;81;27366;-90
2021/08/10 01:54:37;;;;;;;7.47;5.28;;;;;;;16.14;76.90;97541.77;1758836;81;25772;-87
2021/08/10 01:57:05;;;;;;;8.30;5.55;;;;;;;16.15;76.87;97539.87;1739612;81;25733;-89
2021/08/10 01:59:32;;;;;;;7.17;4.78;;;;;;;16.15;76.90;97551.59;1768358;80;26435;-86
2021/08/10 02:02:00;;;;;;;13.38;6.15;;;;;;;16.16;76.89;97551.06;1758648;81;25869;-87
2021/08/10 02:04:27;;;;;;;9.70;5.33;;;;;;;16.16;76.89;97551.89;1758881;81;27573;-90
2021/08/10 02:06:55;;;;;;;8.95;5.60;;;;;;;16.15;76.93;97546.16;1756766;81;25710;-92
2021/08/10 02:09:21;;;;;;;8.13;5.30;;;;;;;16.15;76.97;97557.05;1744660;81;25708;-89
2021/08/10 02:11:51;;;;;;;11.10;5.67;;;;;;;16.11;77.05;97555.04;1765838;81;26330;-86
2021/08/10 02:14:22;;;;;;;11.03;5.53;;;;;;;16.03;77.13;97545.91;1740112;81;25777;-90
2021/08/10 02:16:48;;;;;;;9.58;5.67;;;;;;;16.00;77.26;97547.21;1738723;81;28317;-87
2021/08/10 02:19:15;;;;;;;7.00;5.62;;;;;;;16.04;77.46;97550.28;1756301;81;25222;-89
2021/08/10 02:21:48;;;;;;;9.03;5.30;;;;;;;16.07;77.47;97556.05;1742322;81;25767;-91
2021/08/10 02:24:41;;;;;;;7.78;5.40;;;;;;;16.11;77.43;97553.67;1741393;80;26248;-89
2021/08/10 02:27:15;;;;;;;9.13;5.83;;;;;;;16.13;77.50;97559.71;1742564;81;25706;-86
2021/08/10 02:29:45;;;;;;;6.85;5.33;;;;;;;16.16;77.55;97561.95;1748993;80;27294;-91
2021/08/10 02:32:17;;;;;;;8.50;5.62;;;;;;;16.15;77.61;97555.69;1739213;81;25947;-90
2021/08/10 02:34:44;;;;;;;8.68;5.80;;;;;;;16.15;77.63;97552.96;1759353;81;25778;-89
2021/08/10 02:37:15;;;;;;;9.13;5.90;;;;;;;16.16;77.67;97554.62;1753310;81;25793;-89
2021/08/10 02:39:45;;;;;;;8.25;5.97;;;;;;;16.17;77.68;97553.55;1750643;81;25669;-88
2021/08/10 02:42:15;;;;;;;11.55;6.50;;;;;;;16.19;77.73;97555.47;1740234;81;27351;-90
2021/08/10 02:44:44;;;;;;;13.85;6.10;;;;;;;16.15;77.71;97549.41;1749802;79;26379;-89
2021/08/10 02:47:11;;;;;;;8.65;5.85;;;;;;;16.12;77.82;97548.52;1768106;80;25747;-89
2021/08/10 02:49:40;;;;;;;8.43;5.95;;;;;;;16.12;77.88;97547.99;1768124;80;25704;-90
2021/08/10 02:52:08;;;;;;;11.12;5.62;;;;;;;16.15;77.87;97552.13;1768009;81;25735;-86
2021/08/10 02:54:37;;;;;;;8.93;5.17;;;;;;;16.15;77.93;97547.52;1744891;81;27458;-88
2021/08/10 02:57:09;;;;;;;7.70;6.12;;;;;;;16.14;78.02;97545.03;1755881;81;25712;-86
2021/08/10 02:59:46;;;;;;;8.45;6.00;;;;;;;16.14;77.97;97548.58;1737438;80;25804;-90
2021/08/10 03:02:17;;;;;;;7.72;5.58;;;;;;;16.15;78.03;97543.96;1744053;81;26570;-88
2021/08/10 03:04:50;;;;;;;10.80;5.90;;;;;;;16.16;78.06;97545.09;1769190;80;25779;-89
2021/08/10 03:07:18;;;;;;;9.88;6.15;;;;;;;16.17;78.03;97544.02;1790220;80;28562;-90
2021/08/10 03:09:49;;;;;;;10.20;5.87;;;;;;;16.18;78.07;97548.36;1762614;80;25700;-86
2021/08/10 03:12:17;;;;;;;7.15;5.90;;;;;;;16.17;78.08;97550.83;1762868;81;25775;-86
2021/08/10 03:14:45;;;;;;;7.80;5.55;;;;;;;16.21;78.11;97556.05;1738803;81;25720;-86
2021/08/10 03:17:13;;;;;;;6.25;5.28;;;;;;;16.24;78.09;97553.92;1754680;80;25812;-88
2021/08/10 03:19:41;;;;;;;6.72;5.45;;;;;;;16.25;78.10;97559.66;1782050;80;27320;-88
2021/08/10 03:22:09;;;;;;;12.18;6.03;;;;;;;16.22;78.06;97550.08;1789396;80;25805;-89
2021/08/10 03:24:36;;;;;;;10.80;5.75;;;;;;;16.23;78.08;97548.18;1789988;78;25726;-87
2021/08/10 03:27:05;;;;;;;7.80;5.17;;;;;;;16.26;78.11;97544.98;1783258;80;25737;-86
2021/08/10 03:29:34;;;;;;;8.30;5.80;;;;;;;16.27;78.04;97540.66;1765853;80;25749;-89
2021/08/10 03:32:04;;;;;;;9.93;6.03;;;;;;;16.28;77.97;97545.56;1749291;81;27465;-89
2021/08/10 03:34:32;;;;;;;11.50;6.10;;;;;;;16.26;78.04;97551.25;1745987;81;25728;-91
2021/08/10 03:37:01;;;;;;;12.93;6.30;;;;;;;16.19;78.06;97539.13;1744005;81;25701;-89
2021/08/10 03:39:29;;;;;;;10.40;6.15;;;;;;;16.15;78.10;97539.34;1754336;80;26467;-88
2021/08/10 03:41:56;;;;;;;11.65;7.15;;;;;;;16.15;78.25;97524.90;1781943;80;26441;-88
2021/08/10 03:44:23;;;;;;;8.95;6.55;;;;;;;16.12;78.21;97522.13;1784392;80;28184;-89
2021/08/10 03:46:50;;;;;;;11.40;6.40;;;;;;;16.15;78.28;97518.92;1789849;80;25967;-86
2021/08/10 03:49:22;;;;;;;10.80;6.33;;;;;;;16.17;78.30;97526.31;1786880;80;25792;-86
2021/08/10 03:51:49;;;;;;;6.50;5.77;;;;;;;16.20;78.32;97522.25;1780540;80;25777;-87
2021/08/10 03:54:16;;;;;;;8.68;5.55;;;;;;;16.14;78.31;97516.44;1774214;80;25676;-85
2021/08/10 03:56:46;;;;;;;6.92;5.70;;;;;;;16.10;78.35;97513.36;1769541;80;28140;-85
2021/08/10 03:59:15;;;;;;;10.35;6.17;;;;;;;16.10;78.45;97513.36;1788454;80;25262;-87
2021/08/10 04:01:43;;;;;;;10.03;5.92;;;;;;;16.12;78.57;97515.31;1749858;78;25257;-86
2021/08/10 04:04:12;;;;;;;8.58;5.75;;;;;;;16.15;78.57;97513.47;1758181;80;25816;-84
2021/08/10 04:06:40;;;;;;;9.18;6.20;;;;;;;16.17;78.60;97514.06;1733284;80;25785;-86
2021/08/10 04:09:07;;;;;;;11.03;7.08;;;;;;;16.20;78.59;97510.83;1761495;79;27352;-86
2021/08/10 04:11:34;;;;;;;12.03;5.78;;;;;;;16.24;78.56;97498.09;1770421;79;25810;-86
2021/08/10 04:14:01;;;;;;;12.35;5.72;;;;;;;16.27;78.55;97503.05;1771120;80;25716;-85
2021/08/10 04:16:29;;;;;;;10.03;6.10;;;;;;;16.29;78.57;97506.36;1752589;80;25891;-86
2021/08/10 04:18:58;;;;;;;11.95;6.90;;;;;;;16.31;78.56;97506.38;1756573;80;25955;-88
2021/08/10 04:21:29;;;;;;;10.90;6.50;;;;;;;16.33;78.50;97507.50;1749540;80;27748;-88
2021/08/10 04:23:59;;;;;;;14.47;6.85;;;;;;;16.34;78.52;97507.80;1759506;81;25676;-87
2021/08/10 04:26:24;;;;;;;11.25;6.80;;;;;;;16.36;78.52;97506.48;1742934;81;25718;-88
2021/08/10 04:28:50;;;;;;;9.95;6.05;;;;;;;16.38;78.57;97504.88;1778659;79;25775;-89
2021/08/10 04:31:17;;;;;;;6.72;5.55;;;;;;;16.37;78.51;97515.48;1768148;81;25757;-87
2021/08/10 04:33:44;;;;;;;11.03;5.53;;;;;;;16.39;78.61;97517.44;1761470;80;27355;-85
2021/08/10 04:36:10;;;;;;;8.58;5.95;;;;;;;16.41;78.69;97519.38;1750269;81;26354;-88
2021/08/10 04:38:37;;;;;;;9.13;6.15;;;;;;;16.38;78.63;97513.05;1748318;81;25697;-87
2021/08/10 04:41:03;;;;;;;12.75;5.62;;;;;;;16.39;78.70;97514.71;1766163;79;25743;-90
2021/08/10 04:43:30;;;;;;;8.93;5.95;;;;;;;16.40;78.78;97512.28;1767512;81;25787;-89
2021/08/10 04:45:57;;;;;;;10.25;5.80;;;;;;;16.41;78.80;97512.57;1745826;81;27346;-88
2021/08/10 04:48:23;;;;;;;12.03;6.30;;;;;;;16.43;78.79;97510.41;1739863;81;25819;-87
2021/08/10 04:50:50;;;;;;;9.35;5.65;;;;;;;16.45;78.77;97506.37;1755543;81;25745;-91
2021/08/10 04:53:16;;;;;;;10.90;6.40;;;;;;;16.48;78.71;97505.88;1750799;81;25709;-90
2021/08/10 04:55:43;;;;;;;11.08;7.35;;;;;;;16.51;78.64;97507.30;1742437;81;25793;-89
2021/08/10 04:58:10;;;;;;;10.48;6.87;;;;;;;16.54;78.68;97510.89;1752887;79;27345;-88
2021/08/10 05:00:37;;;;;;;11.95;6.10;;;;;;;16.57;78.66;97513.10;1736923;81;26217;-88
2021/08/10 05:03:04;;;;;;;9.40;5.62;;;;;;;16.60;78.77;97521.33;1743958;81;25880;-87
2021/08/10 05:05:30;;;;;;;16.27;10.50;;;;;;;16.64;78.76;97546.52;1765422;80;25696;-87
2021/08/10 05:07:57;;;;;;;17.77;11.90;;;;;;;16.67;78.72;97552.82;1771236;80;25723;-89
2021/08/10 05:10:24;;;;;;;18.15;11.60;;;;;;;16.68;78.63;97543.58;1766055;80;27363;-86
2021/08/10 05:12:51;;;;;;;18.62;10.93;;;;;;;16.62;78.60;97533.67;1761408;80;25780;-85
2021/08/10 05:15:18;;;;;;;14.40;10.08;;;;;;;16.48;78.54;97523.59;1755448;80;26338;-88
2021/08/10 05:17:45;;;;;;;17.67;10.60;;;;;;;16.40;78.77;97524.00;1762016;80;25690;-86
2021/08/10 05:20:12;;;;;;;13.85;9.43;;;;;;;16.42;78.97;97532.73;1752548;79;25623;-87
2021/08/10 05:22:41;;;;;;;16.17;9.53;;;;;;;16.49;79.05;97545.69;1771318;80;27360;-88
2021/08/10 05:25:09;;;;;;;14.50;10.43;;;;;;;16.54;79.09;97542.23;1757720;80;25715;-86
2021/08/10 05:27:36;;;;;;;13.98;9.08;;;;;;;16.56;79.06;97537.34;1771414;80;25775;-88
2021/08/10 05:30:04;;;;;;;14.20;8.93;;;;;;;16.61;79.07;97536.61;1770214;80;26409;-93
2021/08/10 05:32:30;;;;;;;10.63;7.83;;;;;;;16.63;79.10;97535.86;1755924;80;25854;-87
2021/08/10 05:34:57;;;;;;;13.45;7.28;;;;;;;16.65;79.11;97533.19;1761611;80;27603;-88
2021/08/10 05:37:23;;;;;;;15.98;7.83;;;;;;;16.71;79.06;97538.17;1771262;79;25759;-87
2021/08/10 05:39:50;;;;;;;11.43;7.53;;;;;;;16.74;78.99;97548.05;1771468;80;25258;-87
2021/08/10 05:42:17;;;;;;;14.47;8.23;;;;;;;16.77;78.92;97550.30;1751660;80;25747;-86
2021/08/10 05:44:43;;;;;;;11.53;7.03;;;;;;;16.79;78.85;97552.74;1757206;80;25779;-87
2021/08/10 05:47:10;;;;;;;12.13;7.65;;;;;;;16.80;78.87;97549.77;1768300;80;27409;-88
2021/08/10 05:49:37;;;;;;;11.50;7.00;;;;;;;16.79;78.84;97551.38;1771234;79;25692;-87
2021/08/10 05:52:04;;;;;;;11.78;6.67;;;;;;;16.81;78.91;97545.98;1771351;80;25781;-86
2021/08/10 05:54:31;;;;;;;11.50;7.25;;;;;;;16.87;78.91;97541.45;1767327;79;26504;-88
2021/08/10 05:56:58;;;;;;;13.00;7.67;;;;;;;16.93;78.94;97539.91;1753646;80;25667;-90
2021/08/10 05:59:24;;;;;;;10.70;7.28;;;;;;;16.98;79.11;97541.07;1765749;80;27365;-86
2021/08/10 06:01:51;;;;;;;8.45;6.00;;;;;;;17.03;79.18;97547.41;1755367;80;25888;-89
2021/08/10 06:04:18;;;;;;;9.88;6.40;;;;;;;17.09;79.05;97551.06;1763959;81;26452;-89
2021/08/10 06:06:44;;;;;;;9.00;6.35;;;;;;;17.15;78.89;97548.69;1766888;81;25948;-87
2021/08/10 06:09:11;;;;;;;10.68;6.42;;;;;;;17.22;78.84;97547.98;1767725;81;25548;-86
2021/08/10 06:11:37;;;;;;;11.93;6.80;;;;;;;17.28;78.87;97549.16;1767238;81;28192;-87
2021/08/10 06:14:04;;;;;;;10.03;6.35;;;;;;;17.37;78.86;97540.57;1750316;81;25761;-89
2021/08/10 06:16:31;;;;;;;12.68;6.53;;;;;;;17.43;78.76;97539.02;1744355;81;25745;-87
2021/08/10 06:18:58;;;;;;;10.03;5.95;;;;;;;17.49;78.76;97537.20;1753715;80;25745;-86
2021/08/10 06:21:24;;;;;;;9.43;5.90;;;;;;;17.55;78.71;97549.28;1749385;81;25859;-88
2021/08/10 06:23:51;;;;;;;7.25;5.95;;;;;;;17.60;78.49;97545.80;1764032;81;27387;-88
2021/08/10 06:26:18;;;;;;;9.75;5.83;;;;;;;17.66;78.45;97546.71;1745933;81;26482;-88
2021/08/10 06:28:45;;;;;;;8.75;5.97;;;;;;;17.74;78.34;97547.66;1763114;80;25664;-90
2021/08/10 06:31:12;;;;;;;8.73;6.67;;;;;;;17.81;78.21;97551.84;1742705;81;25704;-86
2021/08/10 06:33:39;;;;;;;11.18;7.33;;;;;;;17.89;78.00;97549.19;1744070;81;25795;-91
2021/08/10 06:36:06;;;;;;;11.43;7.65;;;;;;;17.96;77.93;97541.11;1759501;81;28201;-87
2021/08/10 06:38:34;;;;;;;8.50;6.97;;;;;;;18.06;77.88;97549.95;1742336;81;25718;-86
2021/08/10 06:41:01;;;;;;;8.60;5.65;;;;;;;18.13;77.75;97536.91;1767307;81;25914;-86
2021/08/10 06:43:27;;;;;;;10.95;6.60;;;;;;;18.22;77.55;97535.94;1768175;79;26521;-87
2021/08/10 06:45:54;;;;;;;8.53;5.97;;;;;;;18.30;77.45;97532.73;1768184;80;25781;-89
2021/08/10 06:48:21;;;;;;;9.68;6.03;;;;;;;18.38;77.45;97527.34;1768270;81;27465;-87
2021/08/10 06:50:47;;;;;;;8.28;6.10;;;;;;;18.48;77.60;97527.42;1768248;81;26393;-88
2021/08/10 06:53:16;;;;;;;9.13;5.45;;;;;;;18.57;77.49;97528.09;1762332;80;25773;-91
2021/08/10 06:55:42;;;;;;;8.75;5.80;;;;;;;18.65;77.13;97524.08;1768281;80;25800;-89
2021/08/10 06:58:10;;;;;;;8.15;5.12;;;;;;;18.73;77.00;97527.70;1754295;81;25669;-88
2021/08/10 07:00:36;;;;;;;8.80;6.12;;;;;;;18.83;76.79;97526.44;1767849;79;27384;-89
2021/08/10 07:03:03;;;;;;;8.13;5.78;;;;;;;18.90;76.68;97524.30;1739923;80;25701;-89
2021/08/10 07:05:30;;;;;;;11.48;6.10;;;;;;;18.99;76.68;97523.26;1740602;82;25686;-89
2021/08/10 07:07:57;;;;;;;9.80;5.58;;;;;;;19.06;76.44;97524.70;1754284;81;26518;-89
2021/08/10 07:10:23;;;;;;;9.65;5.53;;;;;;;19.16;76.58;97526.68;1755446;81;26301;-87
2021/08/10 07:12:50;;;;;;;7.78;5.12;;;;;;;19.26;76.47;97521.81;1749074;81;28284;-88
2021/08/10 07:15:17;;;;;;;7.15;5.55;;;;;;;19.35;76.37;97521.59;1747298;81;26426;-92
2021/08/10 07:17:43;;;;;;;8.13;5.85;;;;;;;19.45;76.32;97521.64;1742056;81;25772;-88
2021/08/10 07:20:12;;;;;;;9.25;6.10;;;;;;;19.54;76.14;97516.00;1755467;80;26223;-94
2021/08/10 07:22:38;;;;;;;6.83;5.03;;;;;;;19.65;76.17;97521.80;1756234;80;25777;-85
2021/08/10 07:25:06;;;;;;;7.90;4.42;;;;;;;19.77;76.13;97519.67;1750078;80;27631;-94
2021/08/10 07:27:32;;;;;;;6.67;4.62;;;;;;;19.89;75.84;97514.51;1754576;81;25705;-96
2021/08/10 07:30:00;;;;;;;6.95;4.33;;;;;;;19.98;75.39;97519.19;1755579;80;25783;-90
2021/08/10 07:32:27;;;;;;;7.47;4.90;;;;;;;20.07;75.08;97522.23;1701318;82;25762;-93
2021/08/10 07:34:54;;;;;;;8.98;4.75;;;;;;;20.22;74.98;97528.30;1693077;83;26311;-88
2021/08/10 07:37:20;;;;;;;6.67;4.60;;;;;;;20.33;74.89;97525.32;1727217;82;27436;-95
2021/08/10 07:39:47;;;;;;;5.17;4.10;;;;;;;20.50;74.69;97527.86;1734572;82;25797;-90
2021/08/10 07:42:14;;;;;;;6.17;4.33;;;;;;;20.66;74.32;97522.65;1755403;81;25686;-96
2021/08/10 07:44:40;;;;;;;7.87;4.28;;;;;;;20.88;74.16;97523.78;1740201;82;26453;-93
2021/08/10 07:47:07;;;;;;;8.25;4.00;;;;;;;21.17;73.90;97523.47;1718161;81;25698;-94
2021/08/10 07:49:34;;;;;;;4.40;3.58;;;;;;;21.56;73.26;97512.72;1728767;82;28173;-95
2021/08/10 07:52:04;;;;;;;4.70;3.60;;;;;;;22.01;72.97;97523.84;1709920;82;54347;-89
2021/08/10 07:54:30;;;;;;;4.10;3.50;;;;;;;22.46;72.51;97519.47;1734838;80;25745;-89
2021/08/10 07:56:59;;;;;;;5.08;3.60;;;;;;;22.89;71.81;97512.32;1720558;82;25675;-91
2021/08/10 07:59:26;;;;;;;8.93;4.12;;;;;;;23.38;71.02;97514.08;1757785;79;25780;-93
2021/08/10 08:01:53;;;;;;;7.12;3.50;;;;;;;23.76;70.43;97509.56;1755368;81;28189;-88
2021/08/10 08:04:19;;;;;;;4.35;3.37;;;;;;;24.16;69.80;97517.04;1729453;81;25712;-91
2021/08/10 08:06:46;;;;;;;4.50;3.37;;;;;;;24.50;68.91;97515.52;1756987;79;26366;-94
2021/08/10 08:09:13;;;;;;;3.65;3.15;;;;;;;24.81;68.25;97500.67;1739866;81;25675;-95
2021/08/10 08:11:39;;;;;;;4.17;2.90;;;;;;;25.15;67.96;97500.41;1732171;82;25256;-87
2021/08/10 08:14:06;;;;;;;3.40;3.10;;;;;;;25.42;67.57;97498.53;1745938;81;27377;-89
2021/08/10 08:16:33;;;;;;;3.22;2.92;;;;;;;25.72;66.49;97500.50;1763337;80;25775;-88
2021/08/10 08:19:00;;;;;;;4.42;3.05;;;;;;;25.77;65.81;97489.31;1744001;80;25319;-90
2021/08/10 08:21:27;;;;;;;3.20;2.90;;;;;;;26.00;65.48;97496.58;1739671;81;25762;-90
2021/08/10 08:23:56;;;;;;;7.75;3.00;;;;;;;26.23;64.89;97488.34;1764155;77;25231;-88
2021/08/10 08:26:23;;;;;;;3.52;3.00;;;;;;;26.44;64.09;97486.81;1762746;80;27359;-88
2021/08/10 08:28:50;;;;;;;3.60;3.02;;;;;;;26.67;63.86;97486.27;1761346;81;25492;-93
2021/08/10 08:31:18;;;;;;;2.77;2.40;;;;;;;27.01;63.51;97481.59;1736601;80;25748;-86
2021/08/10 08:33:45;;;;;;;5.75;3.35;;;;;;;27.29;62.74;97480.88;1742539;80;25723;-86
2021/08/10 08:36:11;;;;;;;4.30;2.72;;;;;;;27.59;62.07;97482.27;1745050;81;25728;-87
2021/08/10 08:38:38;;;;;;;3.92;3.20;;;;;;;27.81;61.44;97475.00;1764157;80;27331;-86
2021/08/10 08:41:05;;;;;;;9.25;3.20;;;;;;;28.01;60.55;97473.05;1788167;79;25258;-86
2021/08/10 08:43:32;;;;;;;3.05;2.72;;;;;;;28.25;60.40;97467.09;1788546;80;25688;-94
2021/08/10 08:45:59;;;;;;;5.12;3.05;;;;;;;28.55;60.00;97463.91;1782778;80;25790;-85
2021/08/10 08:48:27;;;;;;;3.25;2.75;;;;;;;28.63;58.77;97457.53;1789169;80;25694;-86
2021/08/10 08:50:56;;;;;;;5.53;2.72;;;;;;;28.74;58.56;97456.05;1773723;80;27373;-95
2021/08/10 08:53:23;;;;;;;5.90;3.20;;;;;;;29.03;58.07;97459.01;1772214;80;25224;-92
2021/08/10 08:55:50;;;;;;;3.12;2.52;;;;;;;29.28;57.57;97455.11;1779458;80;26158;-91
2021/08/10 08:58:16;;;;;;;3.20;2.70;;;;;;;29.51;57.09;97455.14;1757282;80;26492;-94
2021/08/10 09:00:44;;;;;;;6.17;2.80;;;;;;;29.83;56.22;97446.73;1750149;80;25968;-93
2021/08/10 09:03:11;;;;;;;3.67;2.77;;;;;;;30.01;55.55;97450.27;1739339;81;27485;-91
2021/08/10 09:05:40;;;;;;;2.95;2.65;;;;;;;30.05;55.12;97445.68;1713584;82;25769;-89
2021/08/10 09:08:33;;;;;;;3.08;2.72;;;;;;;30.21;55.01;97447.27;1724252;81;26459;-94
2021/08/10 09:11:04;;;;;;;5.70;3.08;;;;;;;30.40;54.67;97442.89;1720980;82;25797;-89
2021/08/10 09:13:32;;;;;;;4.12;2.95;;;;;;;30.62;53.59;97444.55;1732510;82;26285;-91
2021/08/10 09:16:02;;;;;;;3.15;2.37;;;;;;;30.71;52.99;97437.50;1720937;82;28143;-96
2021/08/10 09:18:29;;;;;;;5.83;2.80;;;;;;;30.82;52.69;97435.92;1730728;82;25844;-90
2021/08/10 09:21:13;;;;;;;4.72;2.65;;;;;;;30.84;52.26;97437.80;1731188;81;26550;-93
2021/08/10 09:23:58;;;;;;;5.05;2.87;;;;;;;30.84;51.82;97433.61;1724128;81;25711;-95
2021/08/10 09:26:38;;;;;;;5.03;3.10;;;;;;;30.77;51.51;97429.19;1718710;82;25697;-88
2021/08/10 09:29:05;;;;;;;4.90;2.62;;;;;;;30.67;52.02;97421.25;1733893;82;27341;-88
2021/08/10 09:31:47;;;;;;;3.15;2.83;;;;;;;30.77;51.48;97427.22;1718665;82;25773;-88
2021/08/10 09:34:28;;;;;;;3.50;2.83;;;;;;;30.66;50.71;97425.19;1732448;82;25778;-88
2021/08/10 09:36:56;;;;;;;3.50;3.00;;;;;;;30.69;50.74;97423.09;1713180;81;25777;-91
2021/08/10 09:39:34;;;;;;;3.15;2.60;;;;;;;30.73;50.29;97422.08;1704773;83;25337;-91
2021/08/10 09:42:05;;;;;;;3.80;2.83;;;;;;;30.77;49.84;97418.04;1724528;82;27216;-93
2021/08/10 09:44:33;;;;;;;5.42;3.00;;;;;;;30.72;49.31;97416.84;1730031;82;25750;-88
2021/08/10 09:47:00;;;;;;;5.45;3.25;;;;;;;30.45;49.37;97414.83;1738141;82;26454;-89
2021/08/10 09:49:43;;;;;;;5.53;3.50;;;;;;;30.50;49.61;97408.82;1736879;81;25735;-90
2021/08/10 09:52:29;;;;;;;3.70;3.22;;;;;;;30.56;49.08;97408.86;1723214;82;25729;-87
2021/08/10 09:54:59;;;;;;;3.62;2.98;;;;;;;30.61;48.72;97412.84;1715961;82;27419;-88
2021/08/10 09:57:26;;;;;;;5.03;2.80;;;;;;;30.70;48.31;97409.40;1719635;81;25924;-87
2021/08/10 09:59:53;;;;;;;3.25;2.83;;;;;;;30.71;47.98;97406.28;1715949;82;25716;-91
2021/08/10 10:02:22;;;;;;;4.72;2.80;;;;;;;30.68;47.98;97401.95;1714047;82;25729;-90
2021/08/10 10:04:54;;;;;;;2.98;2.65;;;;;;;30.72;47.84;97401.52;1746034;80;25736;-92
2021/08/10 10:07:23;;;;;;;5.08;3.02;;;;;;;30.77;47.44;97395.17;1739070;81;28285;-89
2021/08/10 10:09:51;;;;;;;3.42;2.45;;;;;;;30.76;47.24;97401.08;1728717;81;25283;-91
2021/08/10 10:12:20;;;;;;;3.85;2.58;;;;;;;30.81;46.83;97395.27;1744605;81;25722;-91
2021/08/10 10:14:47;;;;;;;2.67;2.45;;;;;;;30.82;46.29;97401.66;1790846;80;25835;-90
2021/08/10 10:17:15;;;;;;;4.90;2.47;;;;;;;30.77;46.34;97398.53;1744332;80;25743;-90
2021/08/10 10:19:45;;;;;;;2.45;2.25;;;;;;;30.79;46.22;97396.22;1742593;81;27359;-89
2021/08/10 10:22:17;;;;;;;4.45;3.35;;;;;;;30.83;46.42;97394.36;1742772;81;25860;-91
2021/08/10 10:24:54;;;;;;;;;;;;;;;30.90;46.30;97398.81;1781891;78;25691;-91
2021/08/10 10:27:23;;;;;;;3.98;2.60;;;;;;;30.83;44.91;97399.93;1773843;80;26371;-90
2021/08/10 10:29:56;;;;;;;5.62;3.00;;;;;;;30.81;46.29;97392.48;1770075;80;25418;-91
2021/08/10 10:32:25;;;;;;;2.80;2.60;;;;;;;30.84;46.33;97391.81;1773902;80;27364;-90
2021/08/10 10:34:52;;;;;;;3.70;2.77;;;;;;;30.87;46.19;97386.14;1732774;81;26394;-90
2021/08/10 10:37:24;;;;;;;3.08;2.72;;;;;;;30.90;46.30;97389.64;1759576;80;26579;-90
2021/08/10 10:40:01;;;;;;;6.05;2.70;;;;;;;30.91;46.02;97384.30;1763272;81;25681;-90
2021/08/10 10:42:28;;;;;;;3.50;2.75;;;;;;;30.89;46.15;97384.64;1732881;81;25702;-91
2021/08/10 10:44:55;;;;;;;4.85;2.80;;;;;;;30.68;45.72;97378.28;1767503;80;27464;-91
2021/08/10 10:47:33;;;;;;;3.15;2.85;;;;;;;30.57;46.12;97377.07;1783453;80;25440;-89
2021/08/10 10:50:05;;;;;;;5.53;3.30;;;;;;;30.60;46.14;97377.79;1785964;79;25242;-90
2021/08/10 10:52:34;;;;;;;7.87;3.50;;;;;;;30.68;46.16;97376.88;1790926;79;26316;-91
2021/08/10 10:55:04;;;;;;;8.03;3.47;;;;;;;30.67;45.84;97373.89;1782570;80;25655;-91
2021/08/10 10:57:35;;;;;;;11.05;4.40;;;;;;;30.50;44.99;97375.40;1768649;80;27371;-90
2021/08/10 11:00:12;;;;;;;5.77;2.90;;;;;;;30.18;45.12;97377.80;1777967;80;25650;-91
2021/08/10 11:02:40;;;;;;;3.95;3.00;;;;;;;29.84;45.42;97379.37;1764670;80;25745;-91
2021/08/10 11:05:16;;;;;;;5.67;3.70;;;;;;;29.65;45.31;97373.69;1777895;80;25729;-92
2021/08/10 11:07:43;;;;;;;4.92;2.75;;;;;;;29.51;45.39;97373.11;1788770;80;25981;-91
2021/08/10 11:10:30;;;;;;;4.37;2.87;;;;;;;29.46;45.16;97369.14;1769390;80;27374;-92
2021/08/10 11:12:57;;;;;;;7.95;3.62;;;;;;;29.36;45.48;97371.66;1780288;80;25811;-93
2021/08/10 11:15:45;;;;;;;3.17;2.87;;;;;;;29.17;46.34;97381.00;1760571;80;25923;-89
2021/08/10 11:18:17;;;;;;;4.90;2.90;;;;;;;29.16;46.41;97376.58;1767995;80;25746;-92
2021/08/10 11:21:02;;;;;;;3.95;2.85;;;;;;;29.09;46.67;97369.91;1769373;80;25929;-91
2021/08/10 11:23:34;;;;;;;7.58;3.45;;;;;;;28.90;47.35;97369.71;1745639;80;27380;-90
2021/08/10 11:26:07;;;;;;;3.83;2.50;;;;;;;28.91;47.67;97371.91;1775720;78;25844;-92
2021/08/10 11:28:50;;;;;;;3.65;3.12;;;;;;;29.04;47.23;97365.34;1781758;79;25764;-92
2021/08/10 11:31:43;;;;;;;5.45;3.25;;;;;;;29.19;47.00;97358.43;1788612;80;26541;-91
2021/08/10 11:34:31;;;;;;;3.25;2.75;;;;;;;29.37;47.23;97353.88;1750582;80;25822;-88
2021/08/10 11:37:18;;;;;;;3.55;2.70;;;;;;;29.51;46.43;97346.69;1780275;79;27379;-88
2021/08/10 11:40:11;;;;;;;3.05;2.67;;;;;;;29.55;46.07;97347.66;1777119;80;26280;-87
2021/08/10 11:42:40;;;;;;;4.92;2.65;;;;;;;29.59;45.46;97347.20;1783655;80;25286;-89